Saudade — FAA3845 — position and weather

sailwx.info

Track history (hours):
 
Tides and Currents Weather Stations Pressure Air Temp Water Temp Dewpoint Dewpoint Depression Visibility Wind Speed Wind Dir Waves Ship Positions

Saudade

Last reported at 2017-Apr-27 18:50 UTC. Time now 2017-Apr-28 02:27 UTC.
Position N 17°01' W 061°47'.

Type: Pleasure craft. MMSI: 227116860.

Date/timePositionNaut miles runAvg speedWind from/ knotsBaromVisibWave heightAir tempDewpointWater temp
2017-Apr-27 18:50N 17°01' W 061°47'0 0.1
2017-Apr-27 18:30N 17°01' W 061°47'1 1.1
2017-Apr-27 18:00N 17°00' W 061°47'4 8.5
2017-Apr-27 17:30N 16°56' W 061°48'5 9.0
2017-Apr-27 17:00N 16°52' W 061°48'5 9.3
2017-Apr-27 16:30N 16°47' W 061°48'5 9.3
2017-Apr-27 16:00N 16°42' W 061°49'5 9.4
2017-Apr-27 15:30N 16°38' W 061°49'5 9.4
2017-Apr-27 15:00N 16°33' W 061°49'9 9.2
2017-Apr-27 13:59N 16°24' W 061°49'  
Track history (hours):
 
Tides and Currents Weather Stations Pressure Air Temp Water Temp Dewpoint Dewpoint Depression Visibility Wind Speed Wind Dir Waves Ship Positions

Saudade

Last reported at 2017-Apr-27 18:50 UTC. Time now 2017-Apr-28 02:27 UTC.
Position N 17°01' W 061°47'.

Type: Pleasure craft. MMSI: 227116860.

Date/timePositionNaut miles runAvg speedWind from/ knotsBaromVisibWave heightAir tempDewpointWater temp
2017-Apr-27 18:50N 17°01' W 061°47'0 0.1
2017-Apr-27 18:30N 17°01' W 061°47'1 1.1
2017-Apr-27 18:00N 17°00' W 061°47'4 8.5
2017-Apr-27 17:30N 16°56' W 061°48'5 9.0
2017-Apr-27 17:00N 16°52' W 061°48'5 9.3
2017-Apr-27 16:30N 16°47' W 061°48'5 9.3
2017-Apr-27 16:00N 16°42' W 061°49'5 9.4
2017-Apr-27 15:30N 16°38' W 061°49'5 9.4
2017-Apr-27 15:00N 16°33' W 061°49'9 9.2
2017-Apr-27 13:59N 16°24' W 061°49'  

Dump ship's entire track history